Terminal Aerodrome Forecast
Issued by NWS Cleveland, OH

Home | Current Version | Previous Version | Graphics & Text | Print | Product List | Glossary On
Versions: 1 2 3 4 5 6 7 8 9 10 11 12 13 14 15 16 17 18 19
000
FTUS41 KCLE 180545
TAFERI
TAF
KERI 180545Z 1806/1906 23006KT 2SM -SN OVC015
      TEMPO 1806/1808 1SM -SN OVC007
     FM180830 27010KT P6SM BKN015 BKN025
     FM181600 24008KT P6SM SCT025
     FM182100 18004KT P6SM BKN250=

USA.gov is the U.S. government's official web portal to all federal, state and local government web resources and services.